createdAt,value
2019-04-20T00:00:52.989Z,64.00
2019-04-20T00:03:23.691Z,64.60
2019-04-20T00:05:50.898Z,64.90
2019-04-20T00:08:23.420Z,65.50
2019-04-20T00:10:57.068Z,66.20
2019-04-20T00:13:28.972Z,66.90
2019-04-20T00:15:47.651Z,67.60
2019-04-20T00:18:16.865Z,68.20
2019-04-20T00:21:00.092Z,68.80
2019-04-20T00:23:39.578Z,70.20
2019-04-20T00:27:08.538Z,71.50
2019-04-20T00:29:26.626Z,71.90
2019-04-20T00:31:50.409Z,73.50
2019-04-20T00:34:13.923Z,74.90
2019-04-20T00:36:36.980Z,75.70
2019-04-20T00:39:09.534Z,76.30
2019-04-20T00:41:44.044Z,77.50
2019-04-20T00:44:13.345Z,78.40
2019-04-20T00:46:53.153Z,79.30
2019-04-20T00:49:22.914Z,80.20
2019-04-20T00:51:50.754Z,81.40
2019-04-20T00:54:05.685Z,82.10
2019-04-20T00:56:34.909Z,82.70
2019-04-20T00:59:13.089Z,83.80
2019-04-20T01:01:54.564Z,85.30
2019-04-20T01:04:21.954Z,86.60
2019-04-20T01:06:53.899Z,87.60
2019-04-20T01:09:16.011Z,88.70
2019-04-20T01:11:47.853Z,89.70
2019-04-20T01:14:15.882Z,90.30
2019-04-20T01:16:53.922Z,90.70
2019-04-20T01:19:15.852Z,91.30
2019-04-20T01:21:49.822Z,92.00
2019-04-20T01:24:20.181Z,92.40
2019-04-20T01:26:49.035Z,92.90
2019-04-20T01:29:23.762Z,93.60
2019-04-20T01:31:58.200Z,93.90
2019-04-20T01:34:26.558Z,94.40
2019-04-20T01:36:55.643Z,95.00
2019-04-20T01:39:21.844Z,95.40
2019-04-20T01:41:41.356Z,95.90
2019-04-20T01:44:09.259Z,96.60
2019-04-20T01:46:39.133Z,96.90
2019-04-20T01:49:15.080Z,97.40
2019-04-20T01:51:49.156Z,98.40
2019-04-20T01:54:23.538Z,98.70
2019-04-20T01:56:52.038Z,99.30
2019-04-20T01:59:34.710Z,99.90
2019-04-20T02:02:09.388Z,99.90
2019-04-20T02:04:43.149Z,99.90
2019-04-20T02:07:08.245Z,99.90
2019-04-20T02:09:43.379Z,99.90
2019-04-20T02:12:12.134Z,99.90
2019-04-20T02:14:43.020Z,99.90
2019-04-20T02:17:16.785Z,99.90
2019-04-20T02:19:51.022Z,99.90
2019-04-20T02:22:18.301Z,99.90
2019-04-20T02:24:34.060Z,99.90
2019-04-20T02:27:02.038Z,99.90
2019-04-20T02:29:50.318Z,99.90
2019-04-20T02:35:16.735Z,99.90
2019-04-20T02:38:03.029Z,99.90
2019-04-20T02:40:31.003Z,99.90
2019-04-20T02:42:58.044Z,99.90
2019-04-20T02:45:34.734Z,99.90
2019-04-20T02:47:56.713Z,99.90
2019-04-20T02:50:20.650Z,99.90
2019-04-20T02:52:56.892Z,99.90
2019-04-20T02:55:25.736Z,99.90
2019-04-20T03:00:18.285Z,99.90
2019-04-20T03:02:34.473Z,99.90
2019-04-20T03:05:02.576Z,99.90
2019-04-20T03:07:34.464Z,99.90
2019-04-20T03:10:09.461Z,99.90
2019-04-20T03:12:47.439Z,99.90
2019-04-20T03:15:02.850Z,99.90
2019-04-20T03:17:38.648Z,99.90
2019-04-20T03:20:06.223Z,99.90
2019-04-20T03:23:05.142Z,99.90
2019-04-20T03:25:13.472Z,99.90
2019-04-20T03:27:47.565Z,99.90
2019-04-20T03:33:24.596Z,99.90
2019-04-20T03:35:43.530Z,99.90
2019-04-20T03:38:10.711Z,99.90
2019-04-20T03:40:29.357Z,99.90
2019-04-20T03:42:46.778Z,99.90
2019-04-20T03:45:18.250Z,99.90
2019-04-20T03:47:57.364Z,99.90
2019-04-20T03:50:39.081Z,99.90
2019-04-20T03:53:12.832Z,99.90
2019-04-20T03:55:50.088Z,99.90
2019-04-20T03:58:29.097Z,99.90
2019-04-20T04:01:45.916Z,99.90
2019-04-20T04:04:05.249Z,99.90
2019-04-20T04:06:24.272Z,99.90
2019-04-20T04:08:58.692Z,99.90
2019-04-20T04:11:26.209Z,99.90
2019-04-20T04:13:41.909Z,99.90
2019-04-20T04:16:13.125Z,99.90
2019-04-20T04:18:43.830Z,99.90
2019-04-20T04:21:15.985Z,99.90
2019-04-20T04:23:56.226Z,99.90
2019-04-20T04:26:26.274Z,99.90
2019-04-20T04:28:56.272Z,99.90
2019-04-20T04:31:25.993Z,99.90
2019-04-20T04:34:10.785Z,99.90
2019-04-20T04:36:21.309Z,99.90
2019-04-20T04:39:01.206Z,99.90
2019-04-20T04:41:27.828Z,99.90
2019-04-20T04:43:53.798Z,99.90
2019-04-20T04:46:05.849Z,99.90
2019-04-20T04:48:40.089Z,99.90
2019-04-20T04:51:12.930Z,99.90
2019-04-20T04:53:46.737Z,99.90
2019-04-20T04:56:07.309Z,99.90
2019-04-20T04:58:33.938Z,99.90
2019-04-20T05:01:05.656Z,99.90
2019-04-20T05:03:54.137Z,99.90
2019-04-20T05:06:24.758Z,99.90
2019-04-20T05:08:41.695Z,99.90
2019-04-20T05:11:06.797Z,99.90
2019-04-20T05:13:42.877Z,99.90
2019-04-20T05:16:21.708Z,99.90
2019-04-20T05:18:59.267Z,99.90
2019-04-20T05:21:49.611Z,99.90
2019-04-20T05:24:43.877Z,99.90
2019-04-20T05:27:36.413Z,99.90
2019-04-20T05:29:44.699Z,99.90
2019-04-20T05:32:18.035Z,99.90
2019-04-20T05:35:05.095Z,99.90
2019-04-20T05:37:34.649Z,99.90
2019-04-20T05:40:04.687Z,99.90
2019-04-20T05:42:35.935Z,99.90
2019-04-20T05:44:55.741Z,99.90
2019-04-20T05:47:29.110Z,99.90
2019-04-20T05:49:56.147Z,99.90
2019-04-20T05:52:52.386Z,99.90
2019-04-20T05:55:02.776Z,99.90
2019-04-20T05:57:30.210Z,99.90
2019-04-20T06:00:08.331Z,99.90
2019-04-20T06:02:29.405Z,99.90
2019-04-20T06:07:33.602Z,99.90
2019-04-20T06:10:00.585Z,99.90
2019-04-20T06:12:32.991Z,99.90
2019-04-20T06:15:05.595Z,99.90
2019-04-20T06:17:53.346Z,99.90
2019-04-20T06:20:26.871Z,99.90
2019-04-20T06:23:09.474Z,99.90
2019-04-20T06:25:46.159Z,99.90
2019-04-20T06:28:05.168Z,99.90
2019-04-20T06:30:23.922Z,99.90
2019-04-20T06:33:24.618Z,99.90
2019-04-20T06:36:13.641Z,99.90
2019-04-20T06:38:36.491Z,99.90
2019-04-20T06:41:00.617Z,99.90
2019-04-20T06:43:14.678Z,99.90
2019-04-20T06:45:54.867Z,99.90
2019-04-20T06:48:22.146Z,99.90
2019-04-20T06:50:44.545Z,99.90
2019-04-20T06:53:31.850Z,99.90
2019-04-20T06:56:06.661Z,99.90
2019-04-20T06:58:42.013Z,99.90
2019-04-20T07:00:58.343Z,99.90
2019-04-20T07:03:49.379Z,99.90
2019-04-20T07:06:06.425Z,99.90
2019-04-20T07:08:41.094Z,99.90
2019-04-20T07:10:58.164Z,99.90
2019-04-20T07:13:17.729Z,99.90
2019-04-20T07:16:05.674Z,99.90
2019-04-20T07:18:43.508Z,99.90
2019-04-20T07:21:16.068Z,99.90
2019-04-20T07:23:48.363Z,99.90
2019-04-20T07:26:16.769Z,99.90
2019-04-20T07:28:47.524Z,99.90
2019-04-20T07:31:06.726Z,99.90
2019-04-20T07:33:40.215Z,99.90
2019-04-20T07:36:18.325Z,99.90
2019-04-20T07:38:40.201Z,99.90
2019-04-20T07:41:19.422Z,99.90
2019-04-20T07:43:51.207Z,99.90
2019-04-20T07:46:10.286Z,99.90
2019-04-20T07:48:36.839Z,99.90
2019-04-20T07:50:59.193Z,99.90
2019-04-20T07:53:32.090Z,99.90
2019-04-20T07:56:07.509Z,99.90
2019-04-20T07:58:26.859Z,99.90
2019-04-20T08:01:24.213Z,99.90
2019-04-20T08:03:51.429Z,99.90
2019-04-20T08:06:14.516Z,99.90
2019-04-20T08:08:55.183Z,99.90
2019-04-20T08:11:22.852Z,99.90
2019-04-20T08:13:58.727Z,99.90
2019-04-20T08:16:40.636Z,99.90
2019-04-20T08:18:55.438Z,99.90
2019-04-20T08:21:31.536Z,99.90
2019-04-20T08:23:55.576Z,99.90
2019-04-20T08:26:14.283Z,99.90
2019-04-20T08:28:49.613Z,99.90
2019-04-20T08:31:56.298Z,99.90
2019-04-20T08:34:39.701Z,99.90
2019-04-20T08:36:56.900Z,99.90
2019-04-20T08:39:53.857Z,99.80
2019-04-20T08:42:01.875Z,99.70
2019-04-20T08:44:46.648Z,99.50
2019-04-20T08:47:16.169Z,99.10
2019-04-20T08:49:37.800Z,98.50
2019-04-20T08:54:26.659Z,98.40
2019-04-20T08:56:45.158Z,98.20
2019-04-20T08:59:07.226Z,97.70
2019-04-20T09:01:36.632Z,97.40
2019-04-20T09:04:14.407Z,97.30
2019-04-20T09:06:49.191Z,97.10
2019-04-20T09:09:33.165Z,96.80
2019-04-20T09:11:54.414Z,96.50
2019-04-20T09:14:25.608Z,95.70
2019-04-20T09:17:07.086Z,95.50
2019-04-20T09:19:41.642Z,95.00
2019-04-20T09:22:32.333Z,95.00
2019-04-20T09:25:25.317Z,94.90
2019-04-20T09:27:29.578Z,94.40
2019-04-20T09:30:06.113Z,94.50
2019-04-20T09:32:36.073Z,94.20
2019-04-20T09:35:08.016Z,93.20
2019-04-20T09:37:53.151Z,92.60
2019-04-20T09:40:42.915Z,93.00
2019-04-20T09:42:55.254Z,92.40
2019-04-20T09:45:33.912Z,91.50
2019-04-20T09:47:58.364Z,91.40
2019-04-20T09:50:44.991Z,87.60
2019-04-20T09:53:08.748Z,86.00
2019-04-20T09:55:38.271Z,85.00
2019-04-20T09:58:09.711Z,86.10
2019-04-20T10:00:42.152Z,85.00
2019-04-20T10:02:58.023Z,84.10
2019-04-20T10:05:27.399Z,81.70
2019-04-20T10:07:59.925Z,77.40
2019-04-20T10:10:32.327Z,76.20
2019-04-20T10:12:54.567Z,72.10
2019-04-20T10:15:25.023Z,69.40
2019-04-20T10:17:52.023Z,70.40
2019-04-20T10:20:27.617Z,67.60
2019-04-20T10:22:50.895Z,65.10
2019-04-20T10:25:20.546Z,65.30
2019-04-20T10:27:49.541Z,66.20
2019-04-20T10:30:18.646Z,66.80
2019-04-20T10:32:50.504Z,63.70
2019-04-20T10:35:18.557Z,60.50
2019-04-20T10:37:51.556Z,61.90
2019-04-20T10:40:34.384Z,60.70
2019-04-20T10:42:50.143Z,62.30
2019-04-20T10:45:19.032Z,60.10
2019-04-20T10:47:47.292Z,58.60
2019-04-20T10:50:16.743Z,57.30
2019-04-20T10:52:45.809Z,57.40
2019-04-20T10:55:14.690Z,56.50
2019-04-20T10:57:43.835Z,56.20
2019-04-20T11:00:13.583Z,54.60
2019-04-20T11:02:44.661Z,53.50
2019-04-20T11:05:12.675Z,53.10
2019-04-20T11:07:40.995Z,53.80
2019-04-20T11:10:15.741Z,55.00
2019-04-20T11:12:40.012Z,54.50
2019-04-20T11:15:08.603Z,54.50
2019-04-20T11:17:37.409Z,54.20
2019-04-20T11:20:05.691Z,54.00
2019-04-20T11:22:34.720Z,53.90
2019-04-20T11:25:04.305Z,53.00
2019-04-20T11:27:32.254Z,53.40
2019-04-20T11:30:00.255Z,53.70
2019-04-20T11:32:28.681Z,52.70
2019-04-20T11:35:00.322Z,52.90
2019-04-20T11:37:26.834Z,52.30
2019-04-20T11:39:54.884Z,52.10
2019-04-20T11:42:23.608Z,52.80
2019-04-20T11:44:52.915Z,52.60
2019-04-20T11:47:21.718Z,52.80
2019-04-20T11:49:49.731Z,52.80
2019-04-20T11:52:20.266Z,52.70
2019-04-20T11:54:48.487Z,52.80
2019-04-20T11:57:17.421Z,51.60
2019-04-20T11:59:45.400Z,50.30
2019-04-20T12:02:42.623Z,50.40
2019-04-20T12:05:22.398Z,49.90
2019-04-20T12:07:58.772Z,49.30
2019-04-20T12:10:28.308Z,49.00
2019-04-20T12:12:57.573Z,48.50
2019-04-20T12:15:26.562Z,48.40
2019-04-20T12:17:55.654Z,47.70
2019-04-20T12:20:24.771Z,47.90
2019-04-20T12:22:54.499Z,47.40
2019-04-20T12:25:23.713Z,47.00
2019-04-20T12:27:56.648Z,47.10
2019-04-20T12:30:23.874Z,47.20
2019-04-20T12:32:56.476Z,47.10
2019-04-20T12:35:22.354Z,46.90
2019-04-20T12:37:51.354Z,47.00
2019-04-20T12:40:19.948Z,46.80
2019-04-20T12:42:48.814Z,46.70
2019-04-20T12:45:17.672Z,46.40
2019-04-20T12:47:48.215Z,45.80
2019-04-20T12:50:15.519Z,46.10
2019-04-20T12:52:44.217Z,46.40
2019-04-20T12:55:12.480Z,45.60
2019-04-20T12:57:40.674Z,46.10
2019-04-20T13:00:09.820Z,45.90
2019-04-20T13:02:37.859Z,46.30
2019-04-20T13:05:07.219Z,46.30
2019-04-20T13:07:39.666Z,46.30
2019-04-20T13:10:05.900Z,46.00
2019-04-20T13:12:50.440Z,45.40
2019-04-20T13:15:34.179Z,45.10
2019-04-20T13:18:03.277Z,46.30
2019-04-20T13:20:32.102Z,46.10
2019-04-20T13:23:02.712Z,46.00
2019-04-20T13:25:30.565Z,46.60
2019-04-20T13:27:58.984Z,46.20
2019-04-20T13:30:28.001Z,46.40
2019-04-20T13:32:57.330Z,46.30
2019-04-20T13:35:26.048Z,45.70
2019-04-20T13:37:54.205Z,45.40
2019-04-20T13:40:22.236Z,46.30
2019-04-20T13:42:50.160Z,46.20
2019-04-20T13:45:19.171Z,46.20
2019-04-20T13:47:48.611Z,46.20
2019-04-20T13:50:17.913Z,46.20
2019-04-20T13:52:46.937Z,46.70
2019-04-20T13:55:15.695Z,46.30
2019-04-20T13:57:51.676Z,46.60
2019-04-20T14:00:34.583Z,45.90
2019-04-20T14:03:07.033Z,45.70
2019-04-20T14:05:35.414Z,46.10
2019-04-20T14:08:05.244Z,46.40
2019-04-20T14:10:33.468Z,46.60
2019-04-20T14:13:11.264Z,46.60
2019-04-20T14:15:33.246Z,46.60
2019-04-20T14:18:02.277Z,46.90
2019-04-20T14:20:31.911Z,47.30
2019-04-20T14:23:01.032Z,47.40
2019-04-20T14:25:29.157Z,47.20
2019-04-20T14:27:57.311Z,46.70
2019-04-20T14:30:25.217Z,46.90
2019-04-20T14:32:53.054Z,46.70
2019-04-20T14:35:21.024Z,46.60
2019-04-20T14:37:49.904Z,46.40
2019-04-20T14:40:18.796Z,46.00
2019-04-20T14:42:50.345Z,45.50
2019-04-20T14:45:16.887Z,44.80
2019-04-20T14:47:45.845Z,44.60
2019-04-20T14:50:14.077Z,44.60
2019-04-20T14:52:42.010Z,44.00
2019-04-20T14:55:12.510Z,44.00
2019-04-20T14:57:39.619Z,43.80
2019-04-20T15:00:21.676Z,43.60
2019-04-20T15:02:50.020Z,43.50
2019-04-20T15:05:19.109Z,42.80
2019-04-20T15:07:47.134Z,42.70
2019-04-20T15:10:16.135Z,43.10
2019-04-20T15:12:50.855Z,42.40
2019-04-20T15:15:14.682Z,42.10
2019-04-20T15:17:47.873Z,41.50
2019-04-20T15:20:35.254Z,41.00
2019-04-20T15:23:09.647Z,41.10
2019-04-20T15:25:37.673Z,40.90
2019-04-20T15:28:06.157Z,40.90
2019-04-20T15:30:34.217Z,39.40
2019-04-20T15:33:03.102Z,40.20
2019-04-20T15:35:31.102Z,38.30
2019-04-20T15:37:59.497Z,37.80
2019-04-20T15:40:27.420Z,37.40
2019-04-20T15:43:05.899Z,37.40
2019-04-20T15:45:25.361Z,36.70
2019-04-20T15:47:54.191Z,36.40
2019-04-20T15:50:22.277Z,36.50
2019-04-20T15:52:52.668Z,35.90
2019-04-20T15:55:26.494Z,34.50
2019-04-20T15:57:50.459Z,34.00
2019-04-20T16:00:18.526Z,32.80
2019-04-20T16:02:51.431Z,31.40
2019-04-20T16:05:53.747Z,31.00
2019-04-20T16:08:42.160Z,30.50
2019-04-20T16:11:11.257Z,29.50
2019-04-20T16:13:44.039Z,29.10
2019-04-20T16:16:09.954Z,28.30
2019-04-20T16:18:39.149Z,27.80
2019-04-20T16:21:13.289Z,27.40
2019-04-20T16:23:50.748Z,27.30
2019-04-20T16:26:26.747Z,27.50
2019-04-20T16:28:55.520Z,27.40
2019-04-20T16:31:24.540Z,27.20
2019-04-20T16:33:55.610Z,26.90
2019-04-20T16:36:22.867Z,26.70
2019-04-20T16:38:51.148Z,26.60
2019-04-20T16:41:20.165Z,26.10
2019-04-20T16:43:49.889Z,26.10
2019-04-20T16:46:21.774Z,26.10
2019-04-20T16:48:48.475Z,26.40
2019-04-20T16:51:16.842Z,26.20
2019-04-20T16:53:45.720Z,26.00
2019-04-20T16:56:16.088Z,26.30
2019-04-20T16:58:44.101Z,26.00
2019-04-20T17:01:12.121Z,26.10
2019-04-20T17:03:50.217Z,26.20
2019-04-20T17:06:10.006Z,26.60
2019-04-20T17:08:41.137Z,26.80
2019-04-20T17:11:07.824Z,27.00
2019-04-20T17:13:42.187Z,27.20
2019-04-20T17:16:07.788Z,27.30
2019-04-20T17:18:35.783Z,27.40
2019-04-20T17:21:07.810Z,27.40
2019-04-20T17:23:33.340Z,27.90
2019-04-20T17:26:03.956Z,28.30
2019-04-20T17:28:52.478Z,28.60
2019-04-20T17:31:25.249Z,27.90
2019-04-20T17:34:11.260Z,28.50
2019-04-20T17:36:32.836Z,28.60
2019-04-20T17:39:04.674Z,28.90
2019-04-20T17:41:48.793Z,29.30
2019-04-20T17:44:17.327Z,29.80
2019-04-20T17:46:39.338Z,30.10
2019-04-20T17:51:50.089Z,31.30
2019-04-20T17:54:22.004Z,33.20
2019-04-20T17:56:50.514Z,34.10
2019-04-20T17:59:19.804Z,35.30
2019-04-20T18:02:36.724Z,36.20
2019-04-20T18:07:52.236Z,37.60
2019-04-20T18:10:23.238Z,38.30
2019-04-20T18:12:42.048Z,38.70
2019-04-20T18:15:24.907Z,39.40
2019-04-20T18:18:24.489Z,40.30
2019-04-20T18:20:46.902Z,40.50
2019-04-20T18:23:16.205Z,41.10
2019-04-20T18:26:07.896Z,41.60
2019-04-20T18:28:31.461Z,42.10
2019-04-20T18:31:04.482Z,42.50
2019-04-20T18:33:34.931Z,43.10
2019-04-20T18:36:02.490Z,43.50
2019-04-20T18:38:39.332Z,43.70
2019-04-20T18:41:05.971Z,44.00
2019-04-20T18:43:31.369Z,44.40
2019-04-20T18:46:20.335Z,44.70
2019-04-20T18:48:49.526Z,45.10
2019-04-20T18:50:59.615Z,45.10
2019-04-20T18:53:35.370Z,45.40
2019-04-20T18:55:59.492Z,45.50
2019-04-20T18:58:27.053Z,45.50
2019-04-20T19:00:55.487Z,45.70
2019-04-20T19:03:31.193Z,45.80
2019-04-20T19:05:55.754Z,46.00
2019-04-20T19:08:32.424Z,46.10
2019-04-20T19:11:00.457Z,46.10
2019-04-20T19:13:44.592Z,46.20
2019-04-20T19:16:25.590Z,46.20
2019-04-20T19:19:04.323Z,46.20
2019-04-20T19:21:19.294Z,46.30
2019-04-20T19:23:56.203Z,46.50
2019-04-20T19:26:20.889Z,46.40
2019-04-20T19:28:53.948Z,46.30
2019-04-20T19:31:36.742Z,46.50
2019-04-20T19:34:06.177Z,46.40
2019-04-20T19:36:28.111Z,46.40
2019-04-20T19:39:01.280Z,46.40
2019-04-20T19:41:30.472Z,46.60
2019-04-20T19:43:56.307Z,46.90
2019-04-20T19:46:46.262Z,47.20
2019-04-20T19:48:53.882Z,47.60
2019-04-20T19:51:35.802Z,48.20
2019-04-20T19:54:06.556Z,48.30
2019-04-20T19:56:33.663Z,48.30
2019-04-20T19:58:59.532Z,48.70
2019-04-20T20:01:11.697Z,48.90
2019-04-20T20:03:39.656Z,49.10
2019-04-20T20:06:11.088Z,49.40
2019-04-20T20:08:39.942Z,49.80
2019-04-20T20:11:09.628Z,50.00
2019-04-20T20:13:41.916Z,50.30
2019-04-20T20:16:14.431Z,50.70
2019-04-20T20:18:50.933Z,51.00
2019-04-20T20:21:20.039Z,51.20
2019-04-20T20:23:36.193Z,51.40
2019-04-20T20:26:07.175Z,51.70
2019-04-20T20:28:43.693Z,51.90
2019-04-20T20:31:12.811Z,52.20
2019-04-20T20:33:49.686Z,52.30
2019-04-20T20:36:10.772Z,52.50
2019-04-20T20:38:39.006Z,52.80
2019-04-20T20:41:12.731Z,52.90
2019-04-20T20:43:44.850Z,53.10
2019-04-20T20:46:15.200Z,53.20
2019-04-20T20:48:54.299Z,53.50
2019-04-20T20:51:14.171Z,53.80
2019-04-20T20:53:44.544Z,53.90
2019-04-20T20:56:06.597Z,54.20
2019-04-20T20:58:43.299Z,54.40
2019-04-20T21:01:06.734Z,54.50
2019-04-20T21:03:36.008Z,54.90
2019-04-20T21:05:57.880Z,55.10
2019-04-20T21:08:26.165Z,55.30
2019-04-20T21:10:54.721Z,55.50
2019-04-20T21:13:27.046Z,55.60
2019-04-20T21:16:01.288Z,56.00
2019-04-20T21:18:42.434Z,56.30
2019-04-20T21:21:06.279Z,56.70
2019-04-20T21:23:33.890Z,56.80
2019-04-20T21:26:11.431Z,56.90
2019-04-20T21:28:39.655Z,57.00
2019-04-20T21:31:13.809Z,57.10
2019-04-20T21:33:40.074Z,57.20
2019-04-20T21:36:07.334Z,57.40
2019-04-20T21:38:39.336Z,57.80
2019-04-20T21:41:09.339Z,58.00
2019-04-20T21:43:38.732Z,58.60
2019-04-20T21:46:08.099Z,58.80
2019-04-20T21:48:50.117Z,59.20
2019-04-20T21:51:19.125Z,59.20
2019-04-20T21:53:35.392Z,59.50
2019-04-20T21:56:03.885Z,59.70
2019-04-20T21:58:40.884Z,59.80
2019-04-20T22:01:14.684Z,60.00
2019-04-20T22:03:34.311Z,60.50
2019-04-20T22:06:04.680Z,60.90
2019-04-20T22:08:32.896Z,61.30
2019-04-20T22:11:01.868Z,61.60
2019-04-20T22:13:36.556Z,62.20
2019-04-20T22:16:05.442Z,62.70
2019-04-20T22:18:31.880Z,63.10
2019-04-20T22:21:09.481Z,63.80
2019-04-20T22:23:43.257Z,64.20
2019-04-20T22:26:16.331Z,64.40
2019-04-20T22:28:29.799Z,64.80
2019-04-20T22:30:58.176Z,65.30
2019-04-20T22:33:33.590Z,65.60
2019-04-20T22:36:02.507Z,65.90
2019-04-20T22:38:39.709Z,66.40
2019-04-20T22:41:11.947Z,67.10
2019-04-20T22:43:38.598Z,67.30
2019-04-20T22:46:05.506Z,67.70
2019-04-20T22:48:33.383Z,67.60
2019-04-20T22:51:23.886Z,68.00
2019-04-20T22:53:44.005Z,68.20
2019-04-20T22:56:19.342Z,68.40
2019-04-20T22:58:44.718Z,68.40
2019-04-20T23:01:04.520Z,68.70
2019-04-20T23:03:30.560Z,68.80
2019-04-20T23:05:58.682Z,69.50
2019-04-20T23:08:28.687Z,70.10
2019-04-20T23:10:57.541Z,70.10
2019-04-20T23:13:30.367Z,70.50
2019-04-20T23:15:59.167Z,70.90
2019-04-20T23:18:24.842Z,70.90
2019-04-20T23:20:54.549Z,70.70
2019-04-20T23:23:27.031Z,70.80
2019-04-20T23:25:51.859Z,70.80
2019-04-20T23:28:22.429Z,71.00
2019-04-20T23:30:53.083Z,71.30
2019-04-20T23:33:20.048Z,71.60
2019-04-20T23:35:52.390Z,71.60
2019-04-20T23:38:21.087Z,71.40
2019-04-20T23:40:47.812Z,71.20
2019-04-20T23:43:25.164Z,71.30
2019-04-20T23:45:57.175Z,71.30
2019-04-20T23:48:35.973Z,71.60
2019-04-20T23:51:24.906Z,71.70
2019-04-20T23:53:45.450Z,71.70
2019-04-20T23:56:01.682Z,71.60
2019-04-20T23:58:30.956Z,71.70
